Time;durP1;ratioP1;P1;durP2;ratioP2;P2;SDS_P1;SDS_P2;PMS_P1;PMS_P2;Temp;Humidity;BMP_temperature;BMP_pressure;BME280_temperature;BME280_humidity;BME280_pressure;Samples;Min_cycle;Max_cycle;Signal;HPM_P1;HPM_P2
2022/08/19 00:01:25;;;;;;;4.35;3.95;;;;;;;17.02;90.09;101424.78;5013918;28;20047;-80
2022/08/19 00:03:57;;;;;;;4.38;4.00;;;;;;;16.97;89.82;101426.94;5015166;28;20050;-81
2022/08/19 00:06:24;;;;;;;4.43;4.15;;;;;;;16.95;89.66;101423.22;5014226;28;20054;-81
2022/08/19 00:08:51;;;;;;;4.03;3.60;;;;;;;16.92;89.69;101427.59;5013191;28;20054;-81
2022/08/19 00:11:18;;;;;;;3.80;3.60;;;;;;;16.92;89.23;101426.84;5014124;28;20097;-81
2022/08/19 00:13:52;;;;;;;3.92;3.63;;;;;;;16.92;89.35;101437.59;5014745;28;20058;-81
2022/08/19 00:16:20;;;;;;;6.75;3.80;;;;;;;16.87;89.54;101440.94;5014034;28;20050;-82
2022/08/19 00:18:55;;;;;;;3.95;3.75;;;;;;;16.82;89.58;101433.53;5029822;28;20137;-81
2022/08/19 00:21:23;;;;;;;6.97;3.78;;;;;;;16.79;89.00;101435.22;5013250;28;20054;-81
2022/08/19 00:23:50;;;;;;;4.05;3.75;;;;;;;16.78;89.43;101433.00;5013413;28;20573;-81
2022/08/19 00:26:16;;;;;;;3.90;3.60;;;;;;;16.77;89.66;101429.56;5013840;28;20495;-81
2022/08/19 00:28:43;;;;;;;4.47;3.85;;;;;;;16.76;89.50;101427.34;5013259;28;20061;-81
2022/08/19 00:31:09;;;;;;;3.88;3.67;;;;;;;16.70;89.72;101421.88;5014750;28;20514;-80
2022/08/19 00:33:36;;;;;;;3.83;3.42;;;;;;;16.64;90.14;101429.84;5012897;28;20109;-81
2022/08/19 00:36:08;;;;;;;3.90;3.60;;;;;;;16.64;90.12;101431.81;5012907;28;20494;-81
2022/08/19 00:38:36;;;;;;;3.63;3.42;;;;;;;16.60;89.91;101440.03;5013142;28;20050;-81
2022/08/19 00:41:08;;;;;;;3.63;3.42;;;;;;;16.57;90.20;101426.75;5014614;28;20061;-82
2022/08/19 00:43:35;;;;;;;3.72;3.53;;;;;;;16.56;90.27;101428.72;5013228;28;20062;-82
2022/08/19 00:46:04;;;;;;;3.80;3.50;;;;;;;16.53;90.16;101426.22;5014734;28;20492;-81
2022/08/19 00:48:33;;;;;;;4.18;3.45;;;;;;;16.51;90.27;101423.25;5012767;28;20054;-80
2022/08/19 00:51:01;;;;;;;5.63;3.47;;;;;;;16.49;89.88;101428.34;5031962;28;20515;-81
2022/08/19 00:53:30;;;;;;;3.65;3.45;;;;;;;16.49;90.07;101428.34;5032735;28;20443;-81
2022/08/19 00:56:00;;;;;;;4.00;3.70;;;;;;;16.47;89.95;101420.72;5032898;28;20104;-81
2022/08/19 00:58:32;;;;;;;3.42;3.22;;;;;;;16.45;89.84;101425.09;5033673;28;20038;-81
2022/08/19 01:00:59;;;;;;;4.50;3.47;;;;;;;16.39;89.83;101425.03;5031827;28;20053;-81
2022/08/19 01:03:26;;;;;;;6.28;3.60;;;;;;;16.31;90.55;101421.94;5034222;28;20510;-81
2022/08/19 01:05:54;;;;;;;3.35;3.15;;;;;;;16.28;90.03;101427.50;5031819;28;20459;-81
2022/08/19 01:08:20;;;;;;;3.58;3.28;;;;;;;16.28;89.90;101424.81;5033872;28;20519;-82
2022/08/19 01:10:51;;;;;;;3.75;3.45;;;;;;;16.27;90.27;101426.75;5033275;28;20056;-81
2022/08/19 01:13:22;;;;;;;3.50;3.30;;;;;;;16.23;90.75;101428.16;5034319;28;20049;-81
2022/08/19 01:15:54;;;;;;;3.78;3.45;;;;;;;16.19;90.33;101428.31;5032570;28;20470;-81
2022/08/19 01:18:23;;;;;;;3.95;3.65;;;;;;;16.17;89.96;101419.97;5032929;28;20049;-81
2022/08/19 01:20:51;;;;;;;5.03;3.80;;;;;;;16.16;90.37;101417.75;5015668;28;20054;-81
2022/08/19 01:23:18;;;;;;;5.25;3.35;;;;;;;16.11;90.32;101418.41;5032744;28;20434;-81
2022/08/19 01:25:50;;;;;;;3.72;3.53;;;;;;;16.11;90.09;101415.72;5032396;28;20046;-81
2022/08/19 01:28:27;;;;;;;3.83;3.55;;;;;;;16.08;90.55;101422.75;5033939;28;20053;-81
2022/08/19 01:31:12;;;;;;;4.40;3.97;;;;;;;16.03;90.99;101418.00;5032774;28;20490;-82
2022/08/19 01:33:55;;;;;;;4.50;4.10;;;;;;;15.98;91.52;101419.41;5031822;28;20129;-82
2022/08/19 01:36:28;;;;;;;4.43;4.00;;;;;;;15.98;91.36;101429.41;5032193;28;20505;-82
2022/08/19 01:38:56;;;;;;;3.90;3.70;;;;;;;15.96;91.28;101437.19;5032444;28;20124;-81
2022/08/19 01:41:23;;;;;;;4.60;4.00;;;;;;;15.95;91.21;101431.06;5032239;28;20049;-81
2022/08/19 01:43:52;;;;;;;4.18;3.88;;;;;;;15.90;91.50;101439.75;5032006;28;20898;-81
2022/08/19 01:46:40;;;;;;;4.32;4.10;;;;;;;15.79;91.56;101428.81;5018092;28;20049;-81
2022/08/19 01:49:07;;;;;;;4.10;3.67;;;;;;;15.78;91.35;101424.63;5015172;28;20059;-81
2022/08/19 01:51:35;;;;;;;3.90;3.70;;;;;;;15.75;91.19;101420.19;5015393;28;20054;-81
2022/08/19 01:54:06;;;;;;;4.22;3.90;;;;;;;15.71;91.43;101429.59;5033666;28;20046;-81
2022/08/19 01:56:33;;;;;;;6.13;4.20;;;;;;;15.67;91.65;101422.47;5033407;28;20120;-82
2022/08/19 01:59:03;;;;;;;5.40;4.93;;;;;;;15.67;91.49;101429.78;5031717;28;20100;-82
2022/08/19 02:01:34;;;;;;;4.78;4.47;;;;;;;15.65;91.85;101430.22;5048257;28;20443;-82
2022/08/19 02:04:01;;;;;;;4.50;4.20;;;;;;;15.64;91.38;101425.31;5032564;28;20108;-81
2022/08/19 02:06:28;;;;;;;5.05;4.55;;;;;;;15.65;91.39;101430.22;5032579;28;20104;-82
2022/08/19 02:08:55;;;;;;;5.10;4.70;;;;;;;15.65;91.27;101432.16;5015065;28;20050;-81
2022/08/19 02:11:33;;;;;;;5.28;4.88;;;;;;;15.65;91.03;101429.47;5033148;28;20038;-82
2022/08/19 02:14:05;;;;;;;5.35;4.95;;;;;;;15.63;91.45;101429.94;5014048;28;20080;-81
2022/08/19 02:16:32;;;;;;;7.05;6.45;;;;;;;15.61;91.96;101432.34;5014980;28;20053;-81
2022/08/19 02:19:00;;;;;;;10.43;8.43;;;;;;;15.58;92.32;101429.84;5015132;28;20057;-82
2022/08/19 02:21:28;;;;;;;9.90;8.90;;;;;;;15.57;93.13;101426.44;5031410;28;20097;-81
2022/08/19 02:23:55;;;;;;;11.90;9.05;;;;;;;15.54;93.43;101430.00;5031344;28;20069;-82
2022/08/19 02:26:22;;;;;;;11.88;9.50;;;;;;;15.54;93.02;101430.00;5031265;28;20050;-80
2022/08/19 02:28:48;;;;;;;13.48;8.65;;;;;;;15.53;93.19;101433.13;5031596;28;20050;-81
2022/08/19 02:31:18;;;;;;;8.98;7.32;;;;;;;15.50;92.39;101428.69;5030956;28;20046;-81
2022/08/19 02:33:45;;;;;;;8.05;7.43;;;;;;;15.49;92.43;101437.94;5031359;28;20046;-81
2022/08/19 02:36:14;;;;;;;9.98;6.88;;;;;;;15.47;92.27;101443.75;5031314;28;20050;-81
2022/08/19 02:38:43;;;;;;;11.02;8.25;;;;;;;15.41;92.69;101445.56;5030816;28;20089;-81
2022/08/19 02:41:24;;;;;;;7.45;6.80;;;;;;;15.33;92.80;101444.41;5031616;28;20050;-81
2022/08/19 02:43:53;;;;;;;8.05;5.60;;;;;;;15.31;92.59;101454.84;5031232;28;20049;-81
2022/08/19 02:46:40;;;;;;;8.02;6.85;;;;;;;15.27;92.75;101448.91;5032017;28;20553;-81
2022/08/19 02:49:07;;;;;;;9.80;6.88;;;;;;;15.27;92.71;101452.31;5030996;28;20053;-82
2022/08/19 02:51:38;;;;;;;9.00;7.57;;;;;;;15.28;92.50;101451.13;5032424;28;20042;-82
2022/08/19 02:54:05;;;;;;;13.65;7.63;;;;;;;15.25;92.76;101446.66;5031041;28;20419;-82
2022/08/19 02:56:35;;;;;;;12.27;7.68;;;;;;;15.26;92.65;101445.47;5031061;28;20046;-82
2022/08/19 02:59:07;;;;;;;13.48;7.90;;;;;;;15.25;92.93;101449.34;5014472;28;20054;-82
2022/08/19 03:01:35;;;;;;;8.88;7.97;;;;;;;15.22;93.42;101447.59;5031726;28;20042;-82
2022/08/19 03:04:04;;;;;;;9.82;8.80;;;;;;;15.19;93.69;101453.13;5030922;28;20115;-82
2022/08/19 03:06:31;;;;;;;10.93;8.80;;;;;;;15.19;93.63;101450.47;5031742;28;20054;-82
2022/08/19 03:08:58;;;;;;;8.90;8.00;;;;;;;15.18;93.16;101451.66;5032400;28;20046;-81
2022/08/19 03:11:30;;;;;;;10.95;8.23;;;;;;;15.20;92.73;101451.91;5030644;28;20054;-81
2022/08/19 03:13:58;;;;;;;8.88;8.02;;;;;;;15.17;93.00;101445.53;5032446;28;20100;-82
2022/08/19 03:16:28;;;;;;;9.30;8.00;;;;;;;15.15;93.02;101433.78;5030535;28;20068;-81
2022/08/19 03:19:00;;;;;;;7.43;6.75;;;;;;;15.14;93.36;101429.63;5014924;28;20050;-82
2022/08/19 03:21:31;;;;;;;9.10;8.07;;;;;;;15.14;94.68;101433.03;5030895;28;20058;-82
2022/08/19 03:24:00;;;;;;;8.18;7.43;;;;;;;15.15;94.00;101429.16;5030518;28;20057;-82
2022/08/19 03:26:28;;;;;;;8.35;7.55;;;;;;;15.15;94.79;101428.41;5031960;28;20084;-82
2022/08/19 03:28:55;;;;;;;7.90;7.28;;;;;;;15.14;94.23;101430.34;5030255;28;20058;-82
2022/08/19 03:31:26;;;;;;;8.30;7.53;;;;;;;15.12;94.59;101427.38;5031300;28;20074;-82
2022/08/19 03:34:20;;;;;;;7.78;7.07;;;;;;;15.12;94.27;101432.00;5030478;28;20525;-82
2022/08/19 03:36:47;;;;;;;11.48;9.20;;;;;;;15.10;94.73;101429.78;5031122;28;20046;-82
2022/08/19 03:39:15;;;;;;;10.65;9.65;;;;;;;15.10;95.17;101429.78;5032081;28;20058;-82
2022/08/19 03:41:44;;;;;;;11.85;9.75;;;;;;;15.10;95.70;101432.47;5013815;28;20053;-82
2022/08/19 03:44:15;;;;;;;11.35;9.15;;;;;;;15.10;95.62;101435.13;5046832;28;20057;-82
2022/08/19 03:46:46;;;;;;;12.10;9.27;;;;;;;15.09;95.35;101444.38;5014252;28;20061;-82
2022/08/19 03:49:14;;;;;;;9.20;8.30;;;;;;;15.06;94.65;101436.50;5030279;28;20061;-81
2022/08/19 03:51:42;;;;;;;8.75;7.95;;;;;;;15.05;94.47;101435.00;5029758;28;20498;-81
2022/08/19 03:54:12;;;;;;;8.82;7.95;;;;;;;14.99;93.59;101430.25;5013909;28;20077;-82
2022/08/19 03:56:40;;;;;;;8.45;7.65;;;;;;;14.93;93.44;101426.72;5031411;28;20042;-82
2022/08/19 03:59:11;;;;;;;7.95;7.03;;;;;;;14.87;93.41;101422.41;5013414;28;20053;-82
2022/08/19 04:01:37;;;;;;;9.25;7.50;;;;;;;14.84;93.16;101426.00;5030475;28;20050;-82
2022/08/19 04:04:04;;;;;;;8.10;7.40;;;;;;;14.84;92.83;101426.72;5030295;28;20125;-81
2022/08/19 04:06:34;;;;;;;8.20;7.40;;;;;;;14.85;92.80;101428.22;5029605;28;20057;-81
2022/08/19 04:09:08;;;;;;;10.52;7.35;;;;;;;14.83;92.54;101422.56;5014160;28;20129;-81
2022/08/19 04:11:41;;;;;;;7.00;6.30;;;;;;;14.83;93.32;101419.13;5030049;28;20050;-82
2022/08/19 04:14:13;;;;;;;6.95;6.35;;;;;;;14.84;93.44;101417.94;5029609;28;20049;-81
2022/08/19 04:16:40;;;;;;;8.27;6.18;;;;;;;14.83;94.02;101417.19;5029585;28;20060;-81
2022/08/19 04:19:07;;;;;;;7.22;6.35;;;;;;;14.81;93.76;101416.16;5031311;28;20523;-81
2022/08/19 04:21:34;;;;;;;7.57;6.88;;;;;;;14.72;94.06;101411.59;5029991;28;20050;-81
2022/08/19 04:24:01;;;;;;;7.22;6.45;;;;;;;14.70;94.13;101421.28;5031173;28;20037;-81
2022/08/19 04:26:35;;;;;;;7.07;6.38;;;;;;;14.70;93.83;101418.59;5031255;28;20046;-81
2022/08/19 04:29:09;;;;;;;9.32;6.55;;;;;;;14.64;94.10;101415.78;5012573;28;20050;-81
2022/08/19 04:31:40;;;;;;;9.95;6.82;;;;;;;14.56;94.92;101414.63;5029579;28;20058;-81
2022/08/19 04:34:10;;;;;;;10.18;7.05;;;;;;;14.54;94.70;101417.00;5031029;28;20483;-81
2022/08/19 04:36:40;;;;;;;10.38;7.45;;;;;;;14.52;95.51;101414.78;5031806;28;20061;-80
2022/08/19 04:39:09;;;;;;;7.53;6.70;;;;;;;14.48;95.46;101424.16;5032822;28;20053;-81
2022/08/19 04:44:22;;;;;;;10.93;7.55;;;;;;;14.47;95.34;101411.94;5032517;28;20080;-81
2022/08/19 04:46:50;;;;;;;11.52;7.82;;;;;;;14.48;95.69;101411.50;5032742;28;20053;-81
2022/08/19 04:49:22;;;;;;;9.30;8.02;;;;;;;14.51;95.07;101412.53;5033450;28;20080;-81
2022/08/19 04:51:53;;;;;;;7.93;7.22;;;;;;;14.54;95.21;101407.03;5034278;28;20053;-81
2022/08/19 04:54:22;;;;;;;8.80;7.90;;;;;;;14.56;95.35;101404.63;5033039;28;20050;-81
2022/08/19 04:57:09;;;;;;;8.38;7.57;;;;;;;14.59;95.23;101411.03;5017914;28;20050;-81
2022/08/19 04:59:37;;;;;;;8.73;7.93;;;;;;;14.60;95.75;101415.94;5033066;28;20046;-81
2022/08/19 05:02:04;;;;;;;10.00;7.68;;;;;;;14.61;95.44;101414.75;5032669;28;20057;-81
2022/08/19 05:04:33;;;;;;;11.95;7.63;;;;;;;14.63;95.99;101420.41;5033753;28;20093;-81
2022/08/19 05:07:00;;;;;;;8.45;7.63;;;;;;;14.64;96.27;101421.16;5032222;28;20418;-81
2022/08/19 05:09:28;;;;;;;10.00;7.72;;;;;;;14.63;96.45;101430.38;5032589;28;20053;-81
2022/08/19 05:12:16;;;;;;;8.60;7.80;;;;;;;14.65;96.46;101434.09;5032255;28;20045;-81
2022/08/19 05:14:44;;;;;;;9.75;7.97;;;;;;;14.68;96.10;101433.19;5034180;28;20045;-82
2022/08/19 05:17:11;;;;;;;11.43;7.53;;;;;;;14.70;95.54;101434.69;5032469;28;20092;-81
2022/08/19 05:22:38;;;;;;;7.72;7.03;;;;;;;14.70;95.56;101432.75;5032420;28;20112;-81
2022/08/19 05:25:08;;;;;;;7.97;7.18;;;;;;;14.81;95.46;101434.94;5033457;28;20454;-82
2022/08/19 05:27:39;;;;;;;8.68;7.80;;;;;;;15.29;95.02;101435.78;5016446;28;20061;-80
2022/08/19 05:30:06;;;;;;;10.18;7.88;;;;;;;16.60;89.81;101441.97;5032079;28;20058;-81
2022/08/19 05:32:33;;;;;;;7.90;7.20;;;;;;;17.76;83.49;101439.47;5015897;28;20050;-82
2022/08/19 05:34:59;;;;;;;8.65;6.72;;;;;;;18.62;79.14;101437.91;5032117;28;20507;-82
2022/08/19 05:37:27;;;;;;;7.68;6.97;;;;;;;19.11;76.27;101439.47;5032152;28;20042;-82
2022/08/19 05:39:54;;;;;;;7.07;6.47;;;;;;;19.61;74.38;101444.38;5033029;28;20104;-82
2022/08/19 05:42:22;;;;;;;9.05;8.18;;;;;;;19.75;72.68;101448.88;5031882;28;20053;-81
2022/08/19 05:44:50;;;;;;;8.30;7.57;;;;;;;20.04;71.87;101455.06;5015577;28;20060;-81
2022/08/19 05:47:19;;;;;;;12.23;8.63;;;;;;;20.04;71.64;101447.72;5015016;28;20046;-83
2022/08/19 05:49:46;;;;;;;10.10;9.15;;;;;;;19.96;71.93;101447.47;5032132;28;20056;-83
2022/08/19 05:52:17;;;;;;;10.82;9.70;;;;;;;19.96;72.20;101444.75;5034829;28;20565;-75
2022/08/19 05:54:47;;;;;;;11.00;9.90;;;;;;;20.18;71.68;101446.03;5031398;28;20581;-75
2022/08/19 05:57:20;;;;;;;12.95;10.32;;;;;;;20.43;71.37;101445.09;5033452;28;20038;-75
2022/08/19 05:59:48;;;;;;;13.90;10.90;;;;;;;20.72;70.23;101440.44;5015372;28;20072;-75
2022/08/19 06:02:23;;;;;;;15.30;11.05;;;;;;;20.87;70.43;101435.47;5031622;28;20060;-75
2022/08/19 06:04:50;;;;;;;13.73;11.32;;;;;;;20.70;71.25;101448.28;5015130;28;20061;-76
2022/08/19 06:07:16;;;;;;;15.52;11.32;;;;;;;20.59;71.67;101455.19;5032795;28;20121;-76
2022/08/19 06:09:43;;;;;;;18.55;13.00;;;;;;;20.38;72.87;101456.66;5031311;28;20050;-78
2022/08/19 06:12:33;;;;;;;14.55;13.05;;;;;;;20.22;74.63;101449.97;5032997;28;20108;-75
2022/08/19 06:15:13;;;;;;;18.35;14.25;;;;;;;20.12;75.50;101448.72;5031488;28;20053;-75
2022/08/19 06:17:41;;;;;;;19.25;14.63;;;;;;;19.97;76.20;101448.22;5031421;28;20054;-75
2022/08/19 06:20:12;;;;;;;20.42;16.02;;;;;;;19.79;77.70;101448.63;5031303;28;20079;-75
2022/08/19 06:22:43;;;;;;;23.73;16.70;;;;;;;19.88;78.11;101451.13;5031294;28;20054;-75
2022/08/19 06:25:11;;;;;;;26.20;17.35;;;;;;;19.92;78.92;101446.22;5014293;28;20096;-75
2022/08/19 06:27:38;;;;;;;24.85;19.73;;;;;;;20.01;79.08;101447.94;5032400;28;20530;-75
2022/08/19 06:30:25;;;;;;;29.33;20.73;;;;;;;20.04;79.57;101442.31;5032620;28;20113;-74
2022/08/19 06:32:52;;;;;;;32.28;22.67;;;;;;;19.94;80.69;101441.81;5032593;28;20053;-75
2022/08/19 06:35:18;;;;;;;32.63;21.92;;;;;;;19.76;81.81;101450.34;5032934;28;20121;-76
2022/08/19 06:37:45;;;;;;;27.77;21.30;;;;;;;19.82;82.25;101453.06;5031644;28;20041;-77
2022/08/19 06:40:12;;;;;;;37.03;23.52;;;;;;;19.80;83.05;101445.44;5032397;28;20046;-77
2022/08/19 06:42:39;;;;;;;39.97;24.15;;;;;;;19.80;83.45;101453.56;5030899;28;20050;-77
2022/08/19 06:45:20;;;;;;;32.25;23.80;;;;;;;19.77;83.59;101451.81;5031345;28;20080;-76
2022/08/19 06:47:54;;;;;;;32.45;23.40;;;;;;;19.76;84.67;101453.03;5032463;28;20142;-78
2022/08/19 06:50:20;;;;;;;37.70;25.27;;;;;;;19.70;85.15;101452.28;5030986;28;20160;-76
2022/08/19 06:52:50;;;;;;;40.15;25.58;;;;;;;19.59;86.05;101450.25;5013970;28;20046;-76
2022/08/19 06:55:18;;;;;;;49.47;29.17;;;;;;;19.46;86.27;101452.66;5032704;28;20038;-76
2022/08/19 06:57:45;;;;;;;46.95;27.75;;;;;;;19.39;87.00;101453.09;5014288;28;20037;-76
2022/08/19 07:00:15;;;;;;;44.78;26.90;;;;;;;19.35;87.45;101451.84;5031379;28;20050;-76
2022/08/19 07:02:43;;;;;;;45.65;26.27;;;;;;;19.32;87.47;101458.94;5030849;28;20141;-76
2022/08/19 07:05:18;;;;;;;49.42;27.38;;;;;;;19.21;87.61;101461.59;5029811;28;20045;-77
2022/08/19 07:07:45;;;;;;;58.55;28.63;;;;;;;19.14;88.11;101459.34;5031942;28;20068;-76
2022/08/19 07:10:13;;;;;;;51.17;28.25;;;;;;;19.11;88.14;101460.31;5014272;28;20064;-76
2022/08/19 07:12:41;;;;;;;53.72;28.25;;;;;;;19.09;88.68;101465.44;5030802;28;20050;-78
2022/08/19 07:15:09;;;;;;;57.22;32.58;;;;;;;19.18;88.65;101460.63;5011744;28;20050;-78
2022/08/19 07:17:38;;;;;;;63.92;32.72;;;;;;;19.17;88.76;101461.09;5029929;28;20487;-77
2022/08/19 07:20:07;;;;;;;58.40;33.35;;;;;;;19.18;88.92;101467.97;5029988;28;20112;-77
2022/08/19 07:22:39;;;;;;;58.30;32.73;;;;;;;19.26;88.84;101469.72;5031585;28;20045;-77
2022/08/19 07:25:07;;;;;;;53.03;32.88;;;;;;;19.35;88.11;101468.78;5031566;28;20261;-78
2022/08/19 07:27:34;;;;;;;55.78;32.88;;;;;;;19.31;87.97;101469.00;5013692;28;20049;-77
2022/08/19 07:30:01;;;;;;;51.90;31.42;;;;;;;19.28;88.48;101459.19;5030433;28;20046;-77
2022/08/19 07:32:27;;;;;;;57.35;32.05;;;;;;;19.29;88.48;101466.06;5026697;28;20057;-77
2022/08/19 07:34:55;;;;;;;50.60;32.78;;;;;;;19.27;88.05;101468.50;4994148;28;20052;-77
2022/08/19 07:37:23;;;;;;;58.05;32.45;;;;;;;19.35;88.60;101476.16;5011196;28;20549;-78
2022/08/19 07:39:55;;;;;;;50.47;32.17;;;;;;;19.43;88.34;101471.78;5030095;28;20129;-76
2022/08/19 07:42:21;;;;;;;58.45;32.53;;;;;;;19.45;87.79;101470.06;5029913;28;20050;-80
2022/08/19 07:44:48;;;;;;;56.08;33.28;;;;;;;19.46;87.58;101468.84;5030686;28;20624;-78
2022/08/19 07:47:17;;;;;;;56.10;33.17;;;;;;;19.45;87.84;101472.78;5030096;28;20054;-79
2022/08/19 07:50:07;;;;;;;54.28;32.63;;;;;;;19.55;87.62;101482.19;5028967;28;20065;-77
2022/08/19 07:52:35;;;;;;;51.28;33.95;;;;;;;19.67;87.50;101474.13;5031281;28;20530;-77
2022/08/19 07:55:03;;;;;;;50.20;33.15;;;;;;;19.80;87.17;101479.81;5031203;28;20057;-78
2022/08/19 07:57:30;;;;;;;45.45;30.15;;;;;;;19.90;85.39;101483.78;5029809;28;20519;-78
2022/08/19 07:59:57;;;;;;;44.97;29.83;;;;;;;20.01;84.68;101486.50;5029537;28;20088;-77
2022/08/19 08:02:23;;;;;;;51.08;28.42;;;;;;;20.04;84.48;101487.50;5026116;28;20146;-78
2022/08/19 08:10:20;;;;;;;36.90;24.77;;;;;;;20.24;81.49;101500.84;5032198;28;20046;-79
2022/08/19 08:12:50;;;;;;;35.97;23.95;;;;;;;20.38;81.08;101501.88;5033167;28;20049;-79
2022/08/19 08:15:37;;;;;;;33.30;24.10;;;;;;;20.54;80.94;101506.56;5033027;28;20148;-79
2022/08/19 08:18:09;;;;;;;34.85;23.05;;;;;;;20.54;80.59;101506.56;5033172;28;20046;-80
2022/08/19 08:20:36;;;;;;;38.67;24.60;;;;;;;20.52;81.36;101514.44;5032794;28;20046;-80
2022/08/19 08:23:22;;;;;;;33.85;22.60;;;;;;;20.57;80.94;101509.03;5034361;28;20082;-79
2022/08/19 08:25:49;;;;;;;32.38;22.42;;;;;;;20.43;80.76;101503.84;5034254;28;20060;-80
2022/08/19 08:28:17;;;;;;;31.67;21.95;;;;;;;20.57;80.68;101513.69;5034525;28;20046;-78
2022/08/19 08:30:45;;;;;;;32.40;22.48;;;;;;;20.73;79.54;101523.06;5033929;28;20513;-80
2022/08/19 08:33:16;;;;;;;32.50;22.90;;;;;;;20.89;79.35;101525.03;5034217;28;20049;-84
2022/08/19 08:35:57;;;;;;;30.77;21.13;;;;;;;21.29;78.54;101531.91;5033032;28;20042;-83
2022/08/19 08:38:24;;;;;;;27.45;20.55;;;;;;;21.40;76.37;101533.84;5034278;28;20491;-76
2022/08/19 08:41:06;;;;;;;30.95;20.98;;;;;;;21.32;76.31;101530.91;5033855;28;20049;-76
2022/08/19 08:43:36;;;;;;;30.80;20.48;;;;;;;21.33;76.99;101528.94;5034489;28;20046;-76
2022/08/19 08:46:11;;;;;;;26.97;19.40;;;;;;;21.27;77.03;101524.28;5032776;28;20914;-77
2022/08/19 08:48:47;;;;;;;27.77;17.55;;;;;;;21.20;77.47;101540.25;5033724;28;20050;-77
2022/08/19 08:51:23;;;;;;;29.25;19.70;;;;;;;21.25;77.21;101534.84;5032804;28;20046;-76
2022/08/19 08:53:55;;;;;;;23.02;16.83;;;;;;;21.36;76.83;101527.94;5033542;28;20054;-84
2022/08/19 08:56:22;;;;;;;29.42;17.63;;;;;;;21.44;75.80;101528.94;5033982;28;20042;-81
2022/08/19 08:59:03;;;;;;;27.08;18.45;;;;;;;21.66;74.55;101528.09;5033574;28;20064;-83
2022/08/19 09:01:30;;;;;;;27.98;17.52;;;;;;;21.80;74.63;101522.41;5033713;28;20056;-80
2022/08/19 09:03:56;;;;;;;29.17;17.42;;;;;;;21.70;73.20;101525.88;5033106;28;20042;-80
2022/08/19 09:07:09;;;;;;;27.90;17.20;;;;;;;21.81;73.99;101523.88;5032595;28;20054;-80
2022/08/19 09:10:03;;;;;;;22.95;16.70;;;;;;;22.16;71.96;101525.94;5033368;28;20125;-78
2022/08/19 09:12:44;;;;;;;23.77;16.77;;;;;;;22.25;72.78;101524.91;5048044;28;20107;-81
2022/08/19 09:15:14;;;;;;;25.30;15.60;;;;;;;22.69;71.57;101523.88;5033589;28;20106;-80
2022/08/19 09:17:40;;;;;;;20.65;16.33;;;;;;;23.04;69.77;101528.56;5031417;28;20533;-81
2022/08/19 09:20:10;;;;;;;22.77;16.55;;;;;;;22.99;69.34;101532.06;5033455;28;20046;-81
2022/08/19 09:22:38;;;;;;;24.35;15.10;;;;;;;22.76;71.32;101533.47;5032810;28;20057;-80
2022/08/19 09:25:07;;;;;;;23.45;17.70;;;;;;;22.84;71.15;101531.69;5033234;28;20049;-80
2022/08/19 09:27:37;;;;;;;22.27;15.55;;;;;;;22.87;70.17;101533.38;5033432;28;20057;-80
2022/08/19 09:30:13;;;;;;;22.60;16.60;;;;;;;23.01;70.74;101526.84;5033182;28;20052;-84
2022/08/19 09:32:42;;;;;;;27.25;16.35;;;;;;;23.01;70.18;101532.28;5047594;28;20550;-82
2022/08/19 09:35:09;;;;;;;18.42;15.23;;;;;;;23.03;70.66;101532.50;5048519;28;20049;-81
2022/08/19 09:37:38;;;;;;;24.83;15.90;;;;;;;22.88;70.24;101532.13;5033255;28;20046;-80
2022/08/19 09:40:06;;;;;;;20.30;14.85;;;;;;;22.82;70.27;101534.88;5032886;28;20053;-82
2022/08/19 09:42:34;;;;;;;20.00;14.73;;;;;;;22.98;69.47;101536.00;5033239;28;20042;-80
2022/08/19 09:45:02;;;;;;;19.95;14.70;;;;;;;23.17;68.93;101536.84;5031479;28;20050;-75
2022/08/19 09:47:32;;;;;;;19.83;14.30;;;;;;;23.31;68.13;101532.22;5029965;28;20133;-79
2022/08/19 09:49:58;;;;;;;16.95;12.70;;;;;;;23.51;68.17;101526.34;5047243;28;20065;-83
2022/08/19 09:52:25;;;;;;;23.35;13.77;;;;;;;23.47;65.67;101530.59;5032437;28;20050;-76
2022/08/19 09:54:58;;;;;;;15.65;12.32;;;;;;;23.36;66.96;101533.41;5046904;28;20422;-76
2022/08/19 09:57:25;;;;;;;18.45;12.07;;;;;;;23.51;67.28;101536.47;5031284;28;20571;-76
2022/08/19 09:59:51;;;;;;;17.67;11.40;;;;;;;23.95;66.41;101529.81;5031395;28;20104;-77
2022/08/19 10:02:18;;;;;;;13.75;11.27;;;;;;;24.30;65.63;101528.84;5032813;28;20108;-76
2022/08/19 10:07:33;;;;;;;13.60;11.50;;;;;;;24.72;62.61;101529.22;5032804;28;20046;-77
2022/08/19 10:10:06;;;;;;;16.30;12.88;;;;;;;24.85;59.81;101524.50;5032838;28;20045;-80
2022/08/19 10:12:33;;;;;;;;;;;;;;;24.64;63.17;101531.06;5033341;28;20061;-78
2022/08/19 10:15:01;;;;;;;13.80;10.95;;;;;;;24.58;61.74;101531.88;5031275;28;19932;-78
2022/08/19 10:17:29;;;;;;;14.43;11.95;;;;;;;24.37;62.20;101530.25;5032389;28;20489;-77
2022/08/19 10:19:59;;;;;;;;;;;;;;;24.35;64.76;101535.47;5032036;28;20049;-78
2022/08/19 10:22:26;;;;;;;14.73;11.52;;;;;;;24.64;63.64;101529.06;5014903;28;19972;-76
2022/08/19 10:24:53;;;;;;;14.68;11.27;;;;;;;25.00;62.16;101528.75;5031233;28;20042;-76
2022/08/19 10:27:20;;;;;;;16.95;14.02;;;;;;;24.69;60.09;101530.97;5032832;28;20138;-75
2022/08/19 10:29:47;;;;;;;16.50;12.32;;;;;;;24.75;62.35;101530.91;5032166;28;20050;-76
2022/08/19 10:32:15;;;;;;;14.40;12.85;;;;;;;24.86;62.03;101527.97;5032671;28;20050;-76
2022/08/19 10:34:41;;;;;;;16.63;12.82;;;;;;;24.75;61.47;101528.91;5031489;28;20053;-77
2022/08/19 10:37:16;;;;;;;13.57;12.27;;;;;;;24.79;61.38;101523.88;5032601;28;20507;-76
2022/08/19 10:39:50;;;;;;;15.63;14.02;;;;;;;24.67;60.43;101530.03;5032438;28;20049;-76
2022/08/19 10:42:18;;;;;;;15.80;13.48;;;;;;;24.75;60.52;101525.44;5032405;28;20053;-75
2022/08/19 10:44:46;;;;;;;18.10;13.07;;;;;;;24.80;61.89;101521.88;5030288;28;20050;-75
2022/08/19 10:47:13;;;;;;;14.82;13.20;;;;;;;24.85;61.78;101521.06;5030940;28;20061;-76
2022/08/19 10:52:42;;;;;;;17.63;14.43;;;;;;;25.43;60.64;101525.75;5032249;28;20050;-77
2022/08/19 10:58:03;;;;;;;17.23;14.70;;;;;;;25.68;59.44;101521.53;5032337;28;20046;-76
2022/08/19 11:00:31;;;;;;;16.95;14.40;;;;;;;25.77;60.81;101512.94;5013373;28;20045;-77
2022/08/19 11:02:57;;;;;;;19.75;14.20;;;;;;;25.64;60.59;101515.66;5031814;28;20503;-75
2022/08/19 11:05:24;;;;;;;20.23;15.48;;;;;;;25.67;60.90;101511.16;5030004;28;20054;-76
2022/08/19 11:07:51;;;;;;;26.33;16.80;;;;;;;25.75;59.75;101507.28;5013785;28;20529;-76
2022/08/19 11:10:18;;;;;;;17.20;15.00;;;;;;;25.68;60.46;101509.91;5013897;28;20056;-75
2022/08/19 11:12:48;;;;;;;24.90;17.02;;;;;;;25.70;59.99;101508.13;5030306;28;20471;-75
2022/08/19 11:15:15;;;;;;;18.05;16.13;;;;;;;25.54;60.33;101509.91;5031554;28;20046;-75
2022/08/19 11:17:43;;;;;;;18.88;16.15;;;;;;;25.17;62.02;101504.69;5029986;28;20693;-75
2022/08/19 11:20:11;;;;;;;23.52;16.80;;;;;;;25.03;62.03;101503.94;5030294;28;20037;-76
2022/08/19 11:22:39;;;;;;;19.58;17.45;;;;;;;25.00;62.64;101501.53;5031550;28;20108;-74
2022/08/19 11:25:09;;;;;;;22.58;17.88;;;;;;;25.02;63.08;101504.47;5031822;28;20081;-76
2022/08/19 11:27:44;;;;;;;21.85;17.10;;;;;;;25.50;62.76;101497.84;5029431;28;20467;-76
2022/08/19 11:30:12;;;;;;;20.90;17.13;;;;;;;25.89;61.98;101499.81;5029853;28;20491;-75
2022/08/19 11:32:40;;;;;;;18.73;16.75;;;;;;;26.08;59.35;101496.88;5029943;28;20538;-75
2022/08/19 11:35:14;;;;;;;20.45;16.45;;;;;;;26.11;60.03;101493.09;5014907;28;20565;-74
2022/08/19 11:37:40;;;;;;;22.00;15.75;;;;;;;26.01;59.29;101486.63;5029776;28;20057;-76
2022/08/19 11:40:07;;;;;;;19.75;16.02;;;;;;;25.91;59.69;101489.09;5029911;28;20060;-75
2022/08/19 11:45:19;;;;;;;23.52;19.00;;;;;;;26.04;61.18;101486.31;5032611;28;20586;-75
2022/08/19 11:47:47;;;;;;;22.73;18.25;;;;;;;25.78;59.88;101492.59;5034837;28;20045;-75
2022/08/19 11:50:15;;;;;;;22.00;17.85;;;;;;;25.68;61.83;101490.81;5034810;28;20121;-75
2022/08/19 11:52:43;;;;;;;22.25;16.42;;;;;;;25.91;60.86;101497.28;5034464;28;20115;-75